sensor_id;sensor_type;location;lat;lon;timestamp;P1;durP1;ratioP1;P2;durP2;ratioP2
12721;SDS011;6425;50.316;8.114;2022-09-09T00:00:44;1.37;;;0.40;;
12721;SDS011;6425;50.316;8.114;2022-09-09T00:05:51;1.17;;;0.40;;
12721;SDS011;6425;50.316;8.114;2022-09-09T00:10:59;2.00;;;0.40;;
12721;SDS011;6425;50.316;8.114;2022-09-09T00:16:07;3.07;;;1.03;;
12721;SDS011;6425;50.316;8.114;2022-09-09T00:21:14;2.47;;;0.40;;
12721;SDS011;6425;50.316;8.114;2022-09-09T00:26:18;0.83;;;0.37;;
12721;SDS011;6425;50.316;8.114;2022-09-09T00:31:26;2.07;;;0.47;;
12721;SDS011;6425;50.316;8.114;2022-09-09T00:36:28;3.43;;;0.40;;
12721;SDS011;6425;50.316;8.114;2022-09-09T00:41:35;4.30;;;0.40;;
12721;SDS011;6425;50.316;8.114;2022-09-09T00:46:53;5.93;;;1.50;;
12721;SDS011;6425;50.316;8.114;2022-09-09T00:52:03;3.30;;;0.50;;
12721;SDS011;6425;50.316;8.114;2022-09-09T00:57:24;3.47;;;0.53;;
12721;SDS011;6425;50.316;8.114;2022-09-09T01:02:28;5.13;;;0.53;;
12721;SDS011;6425;50.316;8.114;2022-09-09T01:07:32;2.10;;;0.50;;
12721;SDS011;6425;50.316;8.114;2022-09-09T01:12:34;3.87;;;0.60;;
12721;SDS011;6425;50.316;8.114;2022-09-09T01:17:48;2.93;;;0.40;;
12721;SDS011;6425;50.316;8.114;2022-09-09T01:23:11;3.70;;;0.60;;
12721;SDS011;6425;50.316;8.114;2022-09-09T01:28:45;3.03;;;0.50;;
12721;SDS011;6425;50.316;8.114;2022-09-09T01:33:49;5.43;;;0.60;;
12721;SDS011;6425;50.316;8.114;2022-09-09T01:38:50;2.70;;;0.40;;
12721;SDS011;6425;50.316;8.114;2022-09-09T01:43:54;1.63;;;0.47;;
12721;SDS011;6425;50.316;8.114;2022-09-09T01:48:56;2.33;;;0.50;;
12721;SDS011;6425;50.316;8.114;2022-09-09T01:53:59;3.70;;;0.57;;
12721;SDS011;6425;50.316;8.114;2022-09-09T01:59:06;4.80;;;0.90;;
12721;SDS011;6425;50.316;8.114;2022-09-09T02:04:20;2.63;;;0.50;;
12721;SDS011;6425;50.316;8.114;2022-09-09T02:09:30;3.47;;;0.60;;
12721;SDS011;6425;50.316;8.114;2022-09-09T02:14:34;3.70;;;0.73;;
12721;SDS011;6425;50.316;8.114;2022-09-09T02:19:41;8.13;;;0.73;;
12721;SDS011;6425;50.316;8.114;2022-09-09T02:24:56;2.90;;;0.57;;
12721;SDS011;6425;50.316;8.114;2022-09-09T02:30:04;3.03;;;0.70;;
12721;SDS011;6425;50.316;8.114;2022-09-09T02:35:12;4.23;;;0.50;;
12721;SDS011;6425;50.316;8.114;2022-09-09T02:40:16;3.57;;;0.73;;
12721;SDS011;6425;50.316;8.114;2022-09-09T02:45:25;4.10;;;0.83;;
12721;SDS011;6425;50.316;8.114;2022-09-09T02:50:31;3.13;;;0.70;;
12721;SDS011;6425;50.316;8.114;2022-09-09T02:55:37;3.17;;;1.17;;
12721;SDS011;6425;50.316;8.114;2022-09-09T03:00:41;4.73;;;0.70;;
12721;SDS011;6425;50.316;8.114;2022-09-09T03:05:41;4.40;;;0.63;;
12721;SDS011;6425;50.316;8.114;2022-09-09T03:10:43;4.00;;;0.70;;
12721;SDS011;6425;50.316;8.114;2022-09-09T03:15:46;3.03;;;0.60;;
12721;SDS011;6425;50.316;8.114;2022-09-09T03:20:50;4.63;;;0.70;;
12721;SDS011;6425;50.316;8.114;2022-09-09T03:25:52;4.53;;;0.70;;
12721;SDS011;6425;50.316;8.114;2022-09-09T03:31:03;2.03;;;0.50;;
12721;SDS011;6425;50.316;8.114;2022-09-09T03:36:09;3.50;;;0.50;;
12721;SDS011;6425;50.316;8.114;2022-09-09T03:41:10;4.80;;;0.70;;
12721;SDS011;6425;50.316;8.114;2022-09-09T03:46:13;2.40;;;0.40;;
12721;SDS011;6425;50.316;8.114;2022-09-09T03:51:14;4.40;;;0.50;;
12721;SDS011;6425;50.316;8.114;2022-09-09T03:56:15;3.93;;;0.60;;
12721;SDS011;6425;50.316;8.114;2022-09-09T04:01:17;3.63;;;0.60;;
12721;SDS011;6425;50.316;8.114;2022-09-09T04:06:18;4.10;;;0.60;;
12721;SDS011;6425;50.316;8.114;2022-09-09T04:11:21;2.37;;;0.57;;
12721;SDS011;6425;50.316;8.114;2022-09-09T04:16:26;1.60;;;0.60;;
12721;SDS011;6425;50.316;8.114;2022-09-09T04:21:27;2.83;;;0.60;;
12721;SDS011;6425;50.316;8.114;2022-09-09T04:26:28;3.83;;;0.80;;
12721;SDS011;6425;50.316;8.114;2022-09-09T04:31:30;5.93;;;0.87;;
12721;SDS011;6425;50.316;8.114;2022-09-09T04:36:31;2.53;;;0.63;;
12721;SDS011;6425;50.316;8.114;2022-09-09T04:41:34;3.73;;;1.03;;
12721;SDS011;6425;50.316;8.114;2022-09-09T04:46:36;8.23;;;1.23;;
12721;SDS011;6425;50.316;8.114;2022-09-09T04:51:38;6.20;;;1.03;;
12721;SDS011;6425;50.316;8.114;2022-09-09T04:56:38;3.43;;;1.03;;
12721;SDS011;6425;50.316;8.114;2022-09-09T05:01:40;5.13;;;0.90;;
12721;SDS011;6425;50.316;8.114;2022-09-09T05:06:41;5.13;;;0.90;;
12721;SDS011;6425;50.316;8.114;2022-09-09T05:11:41;3.87;;;1.33;;
12721;SDS011;6425;50.316;8.114;2022-09-09T05:16:54;5.03;;;0.90;;
12721;SDS011;6425;50.316;8.114;2022-09-09T05:21:56;3.53;;;1.10;;
12721;SDS011;6425;50.316;8.114;2022-09-09T05:27:04;3.80;;;1.57;;
12721;SDS011;6425;50.316;8.114;2022-09-09T05:32:08;3.20;;;0.70;;
12721;SDS011;6425;50.316;8.114;2022-09-09T05:37:10;5.80;;;0.90;;
12721;SDS011;6425;50.316;8.114;2022-09-09T05:42:11;5.50;;;1.10;;
12721;SDS011;6425;50.316;8.114;2022-09-09T05:47:14;2.03;;;0.80;;
12721;SDS011;6425;50.316;8.114;2022-09-09T05:52:15;4.03;;;0.83;;
12721;SDS011;6425;50.316;8.114;2022-09-09T05:57:16;2.70;;;0.87;;
12721;SDS011;6425;50.316;8.114;2022-09-09T06:02:19;5.30;;;1.10;;
12721;SDS011;6425;50.316;8.114;2022-09-09T06:07:19;3.73;;;0.80;;
12721;SDS011;6425;50.316;8.114;2022-09-09T06:12:20;3.03;;;0.70;;
12721;SDS011;6425;50.316;8.114;2022-09-09T06:17:22;3.03;;;0.73;;
12721;SDS011;6425;50.316;8.114;2022-09-09T06:22:23;4.00;;;1.27;;
12721;SDS011;6425;50.316;8.114;2022-09-09T06:27:24;3.80;;;0.70;;
12721;SDS011;6425;50.316;8.114;2022-09-09T06:32:26;1.67;;;0.53;;
12721;SDS011;6425;50.316;8.114;2022-09-09T06:37:28;3.80;;;0.90;;
12721;SDS011;6425;50.316;8.114;2022-09-09T06:42:29;3.00;;;0.70;;
12721;SDS011;6425;50.316;8.114;2022-09-09T06:47:41;5.03;;;0.80;;
12721;SDS011;6425;50.316;8.114;2022-09-09T06:52:42;5.33;;;2.20;;
12721;SDS011;6425;50.316;8.114;2022-09-09T06:57:46;2.87;;;0.70;;
12721;SDS011;6425;50.316;8.114;2022-09-09T07:02:53;2.40;;;0.87;;
12721;SDS011;6425;50.316;8.114;2022-09-09T07:07:54;3.07;;;0.70;;
12721;SDS011;6425;50.316;8.114;2022-09-09T07:12:55;5.63;;;1.37;;
12721;SDS011;6425;50.316;8.114;2022-09-09T07:18:01;9.80;;;1.07;;
12721;SDS011;6425;50.316;8.114;2022-09-09T07:23:02;2.93;;;1.00;;
12721;SDS011;6425;50.316;8.114;2022-09-09T07:28:03;2.67;;;0.70;;
12721;SDS011;6425;50.316;8.114;2022-09-09T07:33:05;6.03;;;1.00;;
12721;SDS011;6425;50.316;8.114;2022-09-09T07:38:06;4.67;;;0.87;;
12721;SDS011;6425;50.316;8.114;2022-09-09T07:43:06;5.67;;;0.93;;
12721;SDS011;6425;50.316;8.114;2022-09-09T07:48:09;2.33;;;0.70;;
12721;SDS011;6425;50.316;8.114;2022-09-09T07:53:10;4.43;;;0.83;;
12721;SDS011;6425;50.316;8.114;2022-09-09T07:58:10;3.83;;;0.90;;
12721;SDS011;6425;50.316;8.114;2022-09-09T08:03:12;4.93;;;1.23;;
12721;SDS011;6425;50.316;8.114;2022-09-09T08:08:13;3.40;;;0.60;;
12721;SDS011;6425;50.316;8.114;2022-09-09T08:13:14;5.77;;;0.90;;
12721;SDS011;6425;50.316;8.114;2022-09-09T08:18:15;6.30;;;0.90;;
12721;SDS011;6425;50.316;8.114;2022-09-09T08:23:17;4.43;;;0.63;;
12721;SDS011;6425;50.316;8.114;2022-09-09T08:28:18;3.77;;;0.67;;
12721;SDS011;6425;50.316;8.114;2022-09-09T08:33:20;3.83;;;0.73;;
12721;SDS011;6425;50.316;8.114;2022-09-09T08:38:22;3.07;;;0.60;;
12721;SDS011;6425;50.316;8.114;2022-09-09T08:43:22;5.70;;;0.60;;
12721;SDS011;6425;50.316;8.114;2022-09-09T08:48:32;5.73;;;0.70;;
12721;SDS011;6425;50.316;8.114;2022-09-09T08:53:45;4.83;;;1.57;;
12721;SDS011;6425;50.316;8.114;2022-09-09T08:58:49;3.63;;;1.33;;
12721;SDS011;6425;50.316;8.114;2022-09-09T09:03:56;3.37;;;1.43;;
12721;SDS011;6425;50.316;8.114;2022-09-09T09:09:05;3.77;;;0.63;;
12721;SDS011;6425;50.316;8.114;2022-09-09T09:14:13;4.63;;;0.60;;
12721;SDS011;6425;50.316;8.114;2022-09-09T09:19:20;1.90;;;0.50;;
12721;SDS011;6425;50.316;8.114;2022-09-09T09:24:22;5.57;;;0.70;;
12721;SDS011;6425;50.316;8.114;2022-09-09T09:29:27;5.47;;;0.50;;
12721;SDS011;6425;50.316;8.114;2022-09-09T09:34:29;3.80;;;0.60;;
12721;SDS011;6425;50.316;8.114;2022-09-09T09:39:31;3.40;;;0.47;;
12721;SDS011;6425;50.316;8.114;2022-09-09T09:44:35;6.37;;;0.40;;
12721;SDS011;6425;50.316;8.114;2022-09-09T09:49:52;6.07;;;0.60;;
12721;SDS011;6425;50.316;8.114;2022-09-09T09:54:53;3.83;;;0.80;;
12721;SDS011;6425;50.316;8.114;2022-09-09T10:00:04;6.00;;;0.80;;
12721;SDS011;6425;50.316;8.114;2022-09-09T10:05:21;7.37;;;1.20;;
12721;SDS011;6425;50.316;8.114;2022-09-09T10:10:25;5.97;;;0.93;;
12721;SDS011;6425;50.316;8.114;2022-09-09T10:15:36;5.03;;;0.80;;
12721;SDS011;6425;50.316;8.114;2022-09-09T10:20:48;3.93;;;0.50;;
12721;SDS011;6425;50.316;8.114;2022-09-09T10:26:02;3.40;;;0.97;;
12721;SDS011;6425;50.316;8.114;2022-09-09T10:31:18;4.37;;;0.60;;
12721;SDS011;6425;50.316;8.114;2022-09-09T10:36:25;2.57;;;0.77;;
12721;SDS011;6425;50.316;8.114;2022-09-09T10:41:41;4.53;;;1.37;;
12721;SDS011;6425;50.316;8.114;2022-09-09T10:52:28;1.70;;;0.80;;
12721;SDS011;6425;50.316;8.114;2022-09-09T10:57:37;6.37;;;0.40;;
12721;SDS011;6425;50.316;8.114;2022-09-09T11:02:41;4.07;;;1.40;;
12721;SDS011;6425;50.316;8.114;2022-09-09T11:07:44;3.70;;;1.20;;
12721;SDS011;6425;50.316;8.114;2022-09-09T11:12:49;3.93;;;2.40;;
12721;SDS011;6425;50.316;8.114;2022-09-09T11:17:53;3.47;;;1.20;;
12721;SDS011;6425;50.316;8.114;2022-09-09T11:23:01;2.90;;;1.97;;
12721;SDS011;6425;50.316;8.114;2022-09-09T11:28:14;2.37;;;1.63;;
12721;SDS011;6425;50.316;8.114;2022-09-09T11:33:55;4.60;;;1.63;;
12721;SDS011;6425;50.316;8.114;2022-09-09T11:39:11;1.80;;;1.23;;
12721;SDS011;6425;50.316;8.114;2022-09-09T11:44:31;3.80;;;1.20;;
12721;SDS011;6425;50.316;8.114;2022-09-09T11:49:39;2.63;;;1.93;;
12721;SDS011;6425;50.316;8.114;2022-09-09T11:54:46;1.80;;;1.07;;
12721;SDS011;6425;50.316;8.114;2022-09-09T11:59:50;3.13;;;2.87;;
12721;SDS011;6425;50.316;8.114;2022-09-09T12:04:55;3.33;;;3.13;;
12721;SDS011;6425;50.316;8.114;2022-09-09T12:10:01;2.70;;;1.53;;
12721;SDS011;6425;50.316;8.114;2022-09-09T12:15:24;2.70;;;2.50;;
12721;SDS011;6425;50.316;8.114;2022-09-09T12:20:30;2.83;;;2.03;;
12721;SDS011;6425;50.316;8.114;2022-09-09T12:25:37;4.37;;;1.10;;
12721;SDS011;6425;50.316;8.114;2022-09-09T12:30:49;2.63;;;0.23;;
12721;SDS011;6425;50.316;8.114;2022-09-09T12:35:56;1.07;;;0.30;;
12721;SDS011;6425;50.316;8.114;2022-09-09T12:41:00;1.03;;;0.30;;
12721;SDS011;6425;50.316;8.114;2022-09-09T12:46:00;5.57;;;0.80;;
12721;SDS011;6425;50.316;8.114;2022-09-09T12:51:04;7.43;;;0.60;;
12721;SDS011;6425;50.316;8.114;2022-09-09T12:56:20;3.33;;;0.53;;
12721;SDS011;6425;50.316;8.114;2022-09-09T13:01:23;1.13;;;0.40;;
12721;SDS011;6425;50.316;8.114;2022-09-09T13:06:27;1.57;;;0.47;;
12721;SDS011;6425;50.316;8.114;2022-09-09T13:11:30;2.17;;;0.50;;
12721;SDS011;6425;50.316;8.114;2022-09-09T13:16:35;4.60;;;1.20;;
12721;SDS011;6425;50.316;8.114;2022-09-09T13:21:36;1.97;;;1.03;;
12721;SDS011;6425;50.316;8.114;2022-09-09T13:26:39;3.13;;;1.00;;
12721;SDS011;6425;50.316;8.114;2022-09-09T13:31:54;3.70;;;0.50;;
12721;SDS011;6425;50.316;8.114;2022-09-09T13:37:05;3.23;;;1.20;;
12721;SDS011;6425;50.316;8.114;2022-09-09T13:42:19;4.37;;;0.97;;
12721;SDS011;6425;50.316;8.114;2022-09-09T13:47:27;1.10;;;0.30;;
12721;SDS011;6425;50.316;8.114;2022-09-09T13:52:30;1.60;;;0.47;;
12721;SDS011;6425;50.316;8.114;2022-09-09T13:57:35;3.00;;;0.30;;
12721;SDS011;6425;50.316;8.114;2022-09-09T14:02:36;2.83;;;0.30;;
12721;SDS011;6425;50.316;8.114;2022-09-09T14:07:36;2.50;;;0.30;;
12721;SDS011;6425;50.316;8.114;2022-09-09T14:12:39;1.60;;;0.30;;
12721;SDS011;6425;50.316;8.114;2022-09-09T14:17:42;1.40;;;0.40;;
12721;SDS011;6425;50.316;8.114;2022-09-09T14:22:42;3.33;;;0.50;;
12721;SDS011;6425;50.316;8.114;2022-09-09T14:27:44;1.63;;;0.43;;
12721;SDS011;6425;50.316;8.114;2022-09-09T14:32:45;1.53;;;0.50;;
12721;SDS011;6425;50.316;8.114;2022-09-09T14:37:45;1.53;;;0.40;;
12721;SDS011;6425;50.316;8.114;2022-09-09T14:42:47;2.90;;;0.40;;
12721;SDS011;6425;50.316;8.114;2022-09-09T14:47:47;1.37;;;0.40;;
12721;SDS011;6425;50.316;8.114;2022-09-09T14:52:49;4.70;;;0.60;;
12721;SDS011;6425;50.316;8.114;2022-09-09T14:57:52;3.60;;;0.80;;
12721;SDS011;6425;50.316;8.114;2022-09-09T15:02:53;3.27;;;0.50;;
12721;SDS011;6425;50.316;8.114;2022-09-09T15:07:53;1.63;;;0.33;;
12721;SDS011;6425;50.316;8.114;2022-09-09T15:12:55;1.23;;;0.20;;
12721;SDS011;6425;50.316;8.114;2022-09-09T15:17:55;2.93;;;0.47;;
12721;SDS011;6425;50.316;8.114;2022-09-09T15:22:56;3.40;;;0.33;;
12721;SDS011;6425;50.316;8.114;2022-09-09T15:27:58;1.77;;;0.30;;
12721;SDS011;6425;50.316;8.114;2022-09-09T15:32:58;1.53;;;0.40;;
12721;SDS011;6425;50.316;8.114;2022-09-09T15:38:01;3.13;;;0.40;;
12721;SDS011;6425;50.316;8.114;2022-09-09T15:43:03;1.33;;;0.40;;
12721;SDS011;6425;50.316;8.114;2022-09-09T15:48:05;1.93;;;0.40;;
12721;SDS011;6425;50.316;8.114;2022-09-09T15:53:06;5.13;;;0.50;;
12721;SDS011;6425;50.316;8.114;2022-09-09T15:58:07;4.07;;;0.83;;
12721;SDS011;6425;50.316;8.114;2022-09-09T16:03:08;4.27;;;1.00;;
12721;SDS011;6425;50.316;8.114;2022-09-09T16:08:08;3.40;;;0.60;;
12721;SDS011;6425;50.316;8.114;2022-09-09T16:13:10;1.57;;;0.60;;
12721;SDS011;6425;50.316;8.114;2022-09-09T16:18:11;5.67;;;0.90;;
12721;SDS011;6425;50.316;8.114;2022-09-09T16:23:11;3.80;;;0.80;;
12721;SDS011;6425;50.316;8.114;2022-09-09T16:28:13;2.83;;;0.77;;
12721;SDS011;6425;50.316;8.114;2022-09-09T16:33:13;3.03;;;0.80;;
12721;SDS011;6425;50.316;8.114;2022-09-09T16:38:14;2.87;;;0.60;;
12721;SDS011;6425;50.316;8.114;2022-09-09T16:43:15;2.53;;;0.50;;
12721;SDS011;6425;50.316;8.114;2022-09-09T16:48:16;1.87;;;0.30;;
12721;SDS011;6425;50.316;8.114;2022-09-09T16:53:16;6.63;;;0.20;;
12721;SDS011;6425;50.316;8.114;2022-09-09T16:58:18;1.37;;;0.30;;
12721;SDS011;6425;50.316;8.114;2022-09-09T17:03:18;1.00;;;0.20;;
12721;SDS011;6425;50.316;8.114;2022-09-09T17:08:19;0.53;;;0.30;;
12721;SDS011;6425;50.316;8.114;2022-09-09T17:13:20;1.80;;;0.20;;
12721;SDS011;6425;50.316;8.114;2022-09-09T17:18:21;0.20;;;0.10;;
12721;SDS011;6425;50.316;8.114;2022-09-09T17:23:21;3.37;;;0.30;;
12721;SDS011;6425;50.316;8.114;2022-09-09T17:28:23;0.97;;;0.20;;
12721;SDS011;6425;50.316;8.114;2022-09-09T17:33:24;1.13;;;0.30;;
12721;SDS011;6425;50.316;8.114;2022-09-09T17:38:25;0.83;;;0.27;;
12721;SDS011;6425;50.316;8.114;2022-09-09T17:43:27;1.63;;;0.30;;
12721;SDS011;6425;50.316;8.114;2022-09-09T17:48:29;0.97;;;0.23;;
12721;SDS011;6425;50.316;8.114;2022-09-09T17:53:30;2.37;;;0.30;;
12721;SDS011;6425;50.316;8.114;2022-09-09T17:58:31;5.83;;;0.60;;
12721;SDS011;6425;50.316;8.114;2022-09-09T18:03:33;3.43;;;0.40;;
12721;SDS011;6425;50.316;8.114;2022-09-09T18:08:34;2.47;;;0.40;;
12721;SDS011;6425;50.316;8.114;2022-09-09T18:13:37;2.37;;;0.53;;
12721;SDS011;6425;50.316;8.114;2022-09-09T18:18:37;1.57;;;0.30;;
12721;SDS011;6425;50.316;8.114;2022-09-09T18:23:38;1.23;;;0.30;;
12721;SDS011;6425;50.316;8.114;2022-09-09T18:28:42;1.93;;;0.40;;
12721;SDS011;6425;50.316;8.114;2022-09-09T18:33:43;2.17;;;0.43;;
12721;SDS011;6425;50.316;8.114;2022-09-09T18:38:45;1.67;;;0.40;;
12721;SDS011;6425;50.316;8.114;2022-09-09T18:43:47;2.30;;;0.50;;
12721;SDS011;6425;50.316;8.114;2022-09-09T18:48:48;5.37;;;0.40;;
12721;SDS011;6425;50.316;8.114;2022-09-09T18:53:50;1.27;;;0.37;;
12721;SDS011;6425;50.316;8.114;2022-09-09T18:58:53;1.87;;;0.40;;
12721;SDS011;6425;50.316;8.114;2022-09-09T19:03:54;1.43;;;0.30;;
12721;SDS011;6425;50.316;8.114;2022-09-09T19:08:55;1.30;;;0.37;;
12721;SDS011;6425;50.316;8.114;2022-09-09T19:13:58;1.97;;;0.30;;
12721;SDS011;6425;50.316;8.114;2022-09-09T19:19:00;1.33;;;0.40;;
12721;SDS011;6425;50.316;8.114;2022-09-09T19:24:02;4.60;;;0.40;;
12721;SDS011;6425;50.316;8.114;2022-09-09T19:29:06;1.53;;;0.37;;
12721;SDS011;6425;50.316;8.114;2022-09-09T19:34:07;1.70;;;0.30;;
12721;SDS011;6425;50.316;8.114;2022-09-09T19:39:08;2.00;;;0.50;;
12721;SDS011;6425;50.316;8.114;2022-09-09T19:44:11;2.57;;;0.47;;
12721;SDS011;6425;50.316;8.114;2022-09-09T19:49:13;1.20;;;0.40;;
12721;SDS011;6425;50.316;8.114;2022-09-09T19:54:14;0.60;;;0.60;;
12721;SDS011;6425;50.316;8.114;2022-09-09T19:59:16;2.03;;;0.40;;
12721;SDS011;6425;50.316;8.114;2022-09-09T20:04:16;1.50;;;0.33;;
12721;SDS011;6425;50.316;8.114;2022-09-09T20:09:17;1.53;;;0.30;;
12721;SDS011;6425;50.316;8.114;2022-09-09T20:14:19;0.80;;;0.20;;
12721;SDS011;6425;50.316;8.114;2022-09-09T20:19:19;0.37;;;0.30;;
12721;SDS011;6425;50.316;8.114;2022-09-09T20:24:20;1.73;;;0.30;;
12721;SDS011;6425;50.316;8.114;2022-09-09T20:29:22;1.97;;;0.60;;
12721;SDS011;6425;50.316;8.114;2022-09-09T20:34:22;1.60;;;0.20;;
12721;SDS011;6425;50.316;8.114;2022-09-09T20:39:23;1.80;;;0.30;;
12721;SDS011;6425;50.316;8.114;2022-09-09T20:44:25;1.90;;;0.40;;
12721;SDS011;6425;50.316;8.114;2022-09-09T20:49:25;3.57;;;0.30;;
12721;SDS011;6425;50.316;8.114;2022-09-09T20:54:26;0.73;;;0.27;;
12721;SDS011;6425;50.316;8.114;2022-09-09T20:59:29;2.83;;;0.80;;
12721;SDS011;6425;50.316;8.114;2022-09-09T21:04:29;2.77;;;0.93;;
12721;SDS011;6425;50.316;8.114;2022-09-09T21:09:30;0.80;;;0.50;;
12721;SDS011;6425;50.316;8.114;2022-09-09T21:14:32;1.90;;;0.50;;
12721;SDS011;6425;50.316;8.114;2022-09-09T21:19:32;0.80;;;0.40;;
12721;SDS011;6425;50.316;8.114;2022-09-09T21:24:32;0.60;;;0.30;;
12721;SDS011;6425;50.316;8.114;2022-09-09T21:29:34;0.60;;;0.40;;
12721;SDS011;6425;50.316;8.114;2022-09-09T21:34:35;2.80;;;0.43;;
12721;SDS011;6425;50.316;8.114;2022-09-09T21:39:35;3.00;;;0.43;;
12721;SDS011;6425;50.316;8.114;2022-09-09T21:44:39;1.53;;;0.40;;
12721;SDS011;6425;50.316;8.114;2022-09-09T21:49:39;2.40;;;0.43;;
12721;SDS011;6425;50.316;8.114;2022-09-09T21:54:40;2.43;;;0.50;;
12721;SDS011;6425;50.316;8.114;2022-09-09T21:59:41;3.47;;;0.50;;
12721;SDS011;6425;50.316;8.114;2022-09-09T22:04:42;2.40;;;0.50;;
12721;SDS011;6425;50.316;8.114;2022-09-09T22:09:42;1.17;;;0.40;;
12721;SDS011;6425;50.316;8.114;2022-09-09T22:14:44;1.80;;;0.40;;
12721;SDS011;6425;50.316;8.114;2022-09-09T22:19:44;2.70;;;0.50;;
12721;SDS011;6425;50.316;8.114;2022-09-09T22:24:45;4.23;;;0.70;;
12721;SDS011;6425;50.316;8.114;2022-09-09T22:29:47;3.07;;;0.53;;
12721;SDS011;6425;50.316;8.114;2022-09-09T22:34:48;2.70;;;0.50;;
12721;SDS011;6425;50.316;8.114;2022-09-09T22:39:48;2.17;;;0.60;;
12721;SDS011;6425;50.316;8.114;2022-09-09T22:44:50;3.03;;;0.60;;
12721;SDS011;6425;50.316;8.114;2022-09-09T22:49:50;6.80;;;0.80;;
12721;SDS011;6425;50.316;8.114;2022-09-09T22:54:51;3.57;;;0.80;;
12721;SDS011;6425;50.316;8.114;2022-09-09T22:59:53;4.93;;;0.90;;
12721;SDS011;6425;50.316;8.114;2022-09-09T23:04:53;2.93;;;0.67;;
12721;SDS011;6425;50.316;8.114;2022-09-09T23:09:54;2.40;;;0.60;;
12721;SDS011;6425;50.316;8.114;2022-09-09T23:14:55;2.63;;;0.50;;
12721;SDS011;6425;50.316;8.114;2022-09-09T23:19:56;3.03;;;0.80;;
12721;SDS011;6425;50.316;8.114;2022-09-09T23:24:56;4.63;;;0.93;;
12721;SDS011;6425;50.316;8.114;2022-09-09T23:29:58;2.33;;;0.60;;
12721;SDS011;6425;50.316;8.114;2022-09-09T23:34:58;4.87;;;0.93;;
12721;SDS011;6425;50.316;8.114;2022-09-09T23:39:59;5.43;;;0.90;;
12721;SDS011;6425;50.316;8.114;2022-09-09T23:45:00;2.07;;;1.17;;
12721;SDS011;6425;50.316;8.114;2022-09-09T23:50:01;6.53;;;1.13;;
12721;SDS011;6425;50.316;8.114;2022-09-09T23:55:02;2.23;;;0.80;;
